Ecuador Ama la vida
Dirección General de Aviación Civil
IFIS
Lunes 22 de Octubre del 2018
Buscar por aerodromo o helipuerto
Ingrese nombre de aeródromo, localidad o designador OACI:

Buscar por Fir

METAR del 22-10-2018 a las 12:00 UTC
SEQM 221200Z 14003KT 9999 FEW010 BKN026 BKN070 11/09 Q1027 NOSIG RMK A3032=
Viento: dirección 140 grados, velocidad 3 nudos
Visibilidad reinante: 10 km o más
Nubes: Escasas a 1000 pies sobre el nivel del terreno
Nubes: Fragmentadas a 2600 pies sobre el nivel del terreno
Nubes: Fragmentadas a 7000 pies sobre el nivel del terreno
Temperatura: 11 °C
Rocío: 9 °C
Humedad_relativa: 87%
Presión: 1027 hPa
No se esperan cambios significativos en las próximas 2 horas
Información adicional:
Qnh: 30.32 inHg
METAR del 22-10-2018 a las 11:00 UTC
SEQM 221100Z 14002KT 9999 SCT010 BKN026 BKN070 10/09 Q1026 NOSIG RMK A3030=
Viento: dirección 140 grados, velocidad 2 nudos
Visibilidad reinante: 10 km o más
Nubes: Dispersas a 1000 pies sobre el nivel del terreno
Nubes: Fragmentadas a 2600 pies sobre el nivel del terreno
Nubes: Fragmentadas a 7000 pies sobre el nivel del terreno
Temperatura: 10 °C
Rocío: 9 °C
Humedad_relativa: 94%
Presión: 1026 hPa
No se esperan cambios significativos en las próximas 2 horas
Información adicional:
Qnh: 30.30 inHg
METAR del 22-10-2018 a las 10:00 UTC
SEQM 221000Z VRB01KT 9999 BKN030 10/09 Q1025 NOSIG RMK A3027=
Viento: dirección variable, velocidad 1 nudos
Visibilidad reinante: 10 km o más
Nubes: Fragmentadas a 3000 pies sobre el nivel del terreno
Temperatura: 10 °C
Rocío: 9 °C
Humedad_relativa: 94%
Presión: 1025 hPa
No se esperan cambios significativos en las próximas 2 horas
Información adicional:
Qnh: 30.27 inHg
METAR del 22-10-2018 a las 09:00 UTC
SEQM 220900Z 12004KT 9999 BKN030 10/09 Q1024 NOSIG RMK A3026=
Viento: dirección 120 grados, velocidad 4 nudos
Visibilidad reinante: 10 km o más
Nubes: Fragmentadas a 3000 pies sobre el nivel del terreno
Temperatura: 10 °C
Rocío: 9 °C
Humedad_relativa: 94%
Presión: 1024 hPa
No se esperan cambios significativos en las próximas 2 horas
Información adicional:
Qnh: 30.26 inHg
METAR del 22-10-2018 a las 08:00 UTC
SEQM 220800Z 15004KT 9999 BKN030 10/10 Q1025 NOSIG RMK A3026=
Viento: dirección 150 grados, velocidad 4 nudos
Visibilidad reinante: 10 km o más
Nubes: Fragmentadas a 3000 pies sobre el nivel del terreno
Temperatura: 10 °C
Rocío: 10 °C
Humedad_relativa: 100%
Presión: 1025 hPa
No se esperan cambios significativos en las próximas 2 horas
Información adicional:
Qnh: 30.26 inHg
METAR del 22-10-2018 a las 07:00 UTC
SEQM 220700Z 08003KT 9999 BKN030 10/10 Q1025 NOSIG RMK A3027=
Viento: dirección 080 grados, velocidad 3 nudos
Visibilidad reinante: 10 km o más
Nubes: Fragmentadas a 3000 pies sobre el nivel del terreno
Temperatura: 10 °C
Rocío: 10 °C
Humedad_relativa: 100%
Presión: 1025 hPa
No se esperan cambios significativos en las próximas 2 horas
Información adicional:
Qnh: 30.27 inHg
METAR del 22-10-2018 a las 06:00 UTC
SEQM 220600Z 36003KT 320V060 9999 SCT030 11/11 Q1026 NOSIG RMK A3029=
Viento: dirección 360 grados, velocidad 3 nudos
Viento con dirección variable entre 320 y 060 grados
Visibilidad reinante: 10 km o más
Nubes: Dispersas a 3000 pies sobre el nivel del terreno
Temperatura: 11 °C
Rocío: 11 °C
Humedad_relativa: 100%
Presión: 1026 hPa
No se esperan cambios significativos en las próximas 2 horas
Información adicional:
Qnh: 30.29 inHg
METAR del 22-10-2018 a las 05:00 UTC
SEQM 220500Z 16003KT 140V200 9999 BKN006 11/11 Q1026 NOSIG RMK A3032=
Viento: dirección 160 grados, velocidad 3 nudos
Viento con dirección variable entre 140 y 200 grados
Visibilidad reinante: 10 km o más
Nubes: Fragmentadas a 600 pies sobre el nivel del terreno
Temperatura: 11 °C
Rocío: 11 °C
Humedad_relativa: 100%
Presión: 1026 hPa
No se esperan cambios significativos en las próximas 2 horas
Información adicional:
Qnh: 30.32 inHg
METAR del 22-10-2018 a las 04:00 UTC
SEQM 220400Z 09004KT 9999 FEW030 11/11 Q1027 NOSIG RMK A3034=
Viento: dirección 090 grados, velocidad 4 nudos
Visibilidad reinante: 10 km o más
Nubes: Escasas a 3000 pies sobre el nivel del terreno
Temperatura: 11 °C
Rocío: 11 °C
Humedad_relativa: 100%
Presión: 1027 hPa
No se esperan cambios significativos en las próximas 2 horas
Información adicional:
Qnh: 30.34 inHg
METAR del 22-10-2018 a las 03:00 UTC
SEQM 220300Z 01004KT 9999 SCT030 13/12 Q1027 NOSIG RMK A3034=
Viento: dirección 010 grados, velocidad 4 nudos
Visibilidad reinante: 10 km o más
Nubes: Dispersas a 3000 pies sobre el nivel del terreno
Temperatura: 13 °C
Rocío: 12 °C
Humedad_relativa: 94%
Presión: 1027 hPa
No se esperan cambios significativos en las próximas 2 horas
Información adicional:
Qnh: 30.34 inHg